Time;durP1;ratioP1;P1;durP2;ratioP2;P2;SDS_P1;SDS_P2;PMS_P1;PMS_P2;Temp;Humidity;BMP_temperature;BMP_pressure;BME280_temperature;BME280_humidity;BME280_pressure;Samples;Min_cycle;Max_cycle;Signal;HPM_P1;HPM_P2
2024/01/12 00:02:04;;;;;;;19.80;9.57;;;1.40;99.90;;;;;;5006216;28;20053;-55
2024/01/12 00:04:29;;;;;;;19.00;9.43;;;1.40;99.90;;;;;;5020595;28;20037;-57
2024/01/12 00:06:55;;;;;;;19.90;10.05;;;1.50;99.90;;;;;;5016199;28;20021;-54
2024/01/12 00:09:20;;;;;;;21.65;10.45;;;1.50;99.90;;;;;;5019691;28;20320;-56
2024/01/12 00:11:45;;;;;;;23.60;10.63;;;1.40;99.90;;;;;;5019199;28;20028;-56
2024/01/12 00:14:14;;;;;;;17.65;8.82;;;1.50;99.90;;;;;;5021414;28;20133;-57
2024/01/12 00:16:44;;;;;;;25.17;11.13;;;1.50;99.90;;;;;;5019888;28;20324;-57
2024/01/12 00:19:10;;;;;;;28.05;12.60;;;1.50;99.90;;;;;;5021042;28;20051;-55
2024/01/12 00:21:36;;;;;;;22.58;11.18;;;1.50;99.90;;;;;;5022715;28;20140;-55
2024/01/12 00:24:01;;;;;;;22.33;10.82;;;1.50;99.90;;;;;;5019126;28;20525;-57
2024/01/12 00:26:27;;;;;;;29.10;11.02;;;1.50;99.90;;;;;;5020823;28;20157;-57
2024/01/12 00:28:52;;;;;;;18.63;9.73;;;1.50;99.90;;;;;;5021170;28;20509;-54
2024/01/12 00:31:18;;;;;;;19.05;9.25;;;1.50;99.90;;;;;;5020843;28;20486;-57
2024/01/12 00:33:43;;;;;;;21.33;9.38;;;1.40;99.90;;;;;;5020721;28;20029;-55
2024/01/12 00:36:09;;;;;;;25.10;11.38;;;1.50;99.90;;;;;;5023009;28;20093;-56
2024/01/12 00:38:34;;;;;;;20.08;10.05;;;1.50;99.90;;;;;;5019226;28;20025;-56
2024/01/12 00:41:00;;;;;;;29.35;11.57;;;1.40;99.90;;;;;;5020991;28;20439;-53
2024/01/12 00:43:25;;;;;;;25.25;11.43;;;1.40;99.90;;;;;;5012448;28;20042;-55
2024/01/12 00:45:50;;;;;;;20.00;10.32;;;1.40;99.90;;;;;;5015280;28;20405;-54
2024/01/12 00:48:16;;;;;;;20.60;10.60;;;1.40;99.90;;;;;;5013959;28;20087;-54
2024/01/12 00:50:43;;;;;;;17.38;9.00;;;1.40;99.90;;;;;;5013483;28;20481;-55
2024/01/12 00:53:09;;;;;;;26.85;11.02;;;1.40;99.90;;;;;;5013281;28;20025;-55
2024/01/12 00:55:34;;;;;;;22.73;10.75;;;1.40;99.90;;;;;;5015729;28;20510;-54
2024/01/12 00:58:00;;;;;;;22.65;10.90;;;1.40;99.90;;;;;;5010870;28;20502;-55
2024/01/12 01:00:25;;;;;;;25.77;10.93;;;1.40;99.90;;;;;;5020439;28;20386;-63
2024/01/12 01:02:51;;;;;;;17.15;9.20;;;1.40;99.90;;;;;;5014616;28;20025;-63
2024/01/12 01:05:16;;;;;;;21.70;10.32;;;1.40;99.90;;;;;;5020219;28;20056;-63
2024/01/12 01:07:42;;;;;;;22.42;9.38;;;1.40;99.90;;;;;;5019605;28;20037;-63
2024/01/12 01:10:08;;;;;;;16.02;8.60;;;1.40;99.90;;;;;;5018892;28;20025;-64
2024/01/12 01:12:33;;;;;;;21.75;11.38;;;1.40;99.90;;;;;;5016053;28;20037;-63
2024/01/12 01:14:59;;;;;;;24.52;11.35;;;1.40;99.90;;;;;;5020505;28;20104;-64
2024/01/12 01:17:25;;;;;;;23.38;11.43;;;1.40;99.90;;;;;;5019988;28;20033;-63
2024/01/12 01:19:50;;;;;;;21.65;11.05;;;1.40;99.90;;;;;;5020431;28;20068;-64
2024/01/12 01:22:16;;;;;;;20.90;10.02;;;1.40;99.90;;;;;;5017264;28;20057;-63
2024/01/12 01:24:41;;;;;;;22.33;9.98;;;1.40;99.90;;;;;;5019368;28;20030;-63
2024/01/12 01:27:07;;;;;;;18.05;9.15;;;1.40;99.90;;;;;;5017845;28;20133;-63
2024/01/12 01:29:33;;;;;;;19.85;8.68;;;1.40;99.90;;;;;;5015467;28;20030;-63
2024/01/12 01:31:58;;;;;;;18.90;8.93;;;1.40;99.90;;;;;;5019664;28;20032;-62
2024/01/12 01:34:24;;;;;;;15.77;8.63;;;1.40;99.90;;;;;;5021374;28;20116;-63
2024/01/12 01:36:49;;;;;;;23.35;10.05;;;1.40;99.90;;;;;;5019715;28;20393;-63
2024/01/12 01:39:15;;;;;;;20.05;9.52;;;1.40;99.90;;;;;;5011686;28;20530;-63
2024/01/12 01:41:40;;;;;;;20.80;9.30;;;1.40;99.90;;;;;;5019469;28;20037;-63
2024/01/12 01:44:06;;;;;;;25.85;10.35;;;1.40;99.90;;;;;;5018377;28;20452;-63
2024/01/12 01:46:31;;;;;;;18.10;8.20;;;1.40;99.90;;;;;;5012300;28;20064;-63
2024/01/12 01:48:57;;;;;;;18.77;8.63;;;1.30;99.90;;;;;;5016252;28;20036;-64
2024/01/12 01:51:24;;;;;;;16.77;8.38;;;1.30;99.90;;;;;;5012591;28;20164;-63
2024/01/12 01:53:50;;;;;;;15.30;7.82;;;1.30;99.90;;;;;;5014531;28;20083;-64
2024/01/12 01:56:16;;;;;;;20.20;8.90;;;1.30;99.90;;;;;;5011406;28;20041;-63
2024/01/12 01:58:42;;;;;;;16.08;7.38;;;1.30;99.90;;;;;;5017994;28;20249;-63
2024/01/12 02:01:08;;;;;;;14.73;7.65;;;1.30;99.90;;;;;;5019298;28;20022;-63
2024/01/12 02:03:34;;;;;;;23.75;8.10;;;1.40;99.90;;;;;;5015510;28;20086;-63
2024/01/12 02:06:00;;;;;;;17.38;7.80;;;1.30;99.90;;;;;;5019763;28;20488;-63
2024/01/12 02:08:26;;;;;;;17.17;6.82;;;1.30;99.90;;;;;;5019162;28;20454;-63
2024/01/12 02:10:52;;;;;;;21.50;8.57;;;1.30;99.90;;;;;;5011633;28;20022;-63
2024/01/12 02:13:18;;;;;;;18.55;8.70;;;1.30;99.90;;;;;;5018193;28;20025;-63
2024/01/12 02:15:44;;;;;;;15.30;6.82;;;1.30;99.90;;;;;;5019090;28;20030;-63
2024/01/12 02:18:10;;;;;;;17.67;7.93;;;1.20;99.90;;;;;;5009750;28;20276;-64
2024/01/12 02:20:35;;;;;;;25.63;9.20;;;1.20;99.90;;;;;;5015810;28;20125;-63
2024/01/12 02:23:01;;;;;;;20.00;7.63;;;1.20;99.90;;;;;;5012192;28;20099;-63
2024/01/12 02:25:26;;;;;;;22.75;8.38;;;1.20;99.90;;;;;;5012675;28;20398;-63
2024/01/12 02:27:52;;;;;;;17.48;7.70;;;1.20;99.90;;;;;;5013491;28;20072;-63
2024/01/12 02:30:17;;;;;;;16.13;7.32;;;1.20;99.90;;;;;;5012660;28;20057;-63
2024/01/12 02:32:43;;;;;;;11.82;5.95;;;1.20;99.90;;;;;;5011075;28;20117;-63
2024/01/12 02:35:08;;;;;;;17.35;7.28;;;1.20;99.90;;;;;;5020336;28;20024;-63
2024/01/12 02:37:34;;;;;;;11.65;5.78;;;1.20;99.90;;;;;;5015137;28;20571;-63
2024/01/12 02:39:59;;;;;;;12.55;6.25;;;1.20;99.90;;;;;;5022899;28;20484;-63
2024/01/12 02:42:25;;;;;;;16.65;6.15;;;1.10;99.90;;;;;;5018884;28;20071;-64
2024/01/12 02:44:50;;;;;;;11.52;6.05;;;1.10;99.90;;;;;;5021872;28;20017;-63
2024/01/12 02:47:16;;;;;;;14.20;6.00;;;1.10;99.90;;;;;;5024194;28;20021;-63
2024/01/12 02:49:43;;;;;;;12.75;6.60;;;1.20;99.90;;;;;;5016768;28;20052;-64
2024/01/12 02:52:08;;;;;;;10.25;5.50;;;1.20;99.90;;;;;;5014842;28;20049;-64
2024/01/12 02:54:34;;;;;;;11.13;5.60;;;1.20;99.90;;;;;;5016283;28;20049;-64
2024/01/12 02:56:59;;;;;;;12.05;5.60;;;1.30;99.90;;;;;;5018254;28;20033;-64
2024/01/12 02:59:25;;;;;;;9.43;5.40;;;1.30;99.90;;;;;;5013585;28;20125;-64
2024/01/12 03:01:50;;;;;;;12.90;5.45;;;1.30;99.90;;;;;;5010929;28;20026;-64
2024/01/12 03:04:16;;;;;;;12.02;4.70;;;1.20;99.90;;;;;;5018679;28;20045;-63
2024/01/12 03:06:41;;;;;;;12.77;6.35;;;1.30;99.90;;;;;;5014596;28;20437;-64
2024/01/12 03:09:08;;;;;;;12.15;6.38;;;1.30;99.90;;;;;;5019172;28;20022;-64
2024/01/12 03:11:33;;;;;;;10.75;5.28;;;1.30;99.90;;;;;;5016782;28;20028;-64
2024/01/12 03:13:58;;;;;;;14.80;6.22;;;1.30;99.90;;;;;;5014294;28;20026;-64
2024/01/12 03:16:24;;;;;;;11.82;5.70;;;1.30;99.90;;;;;;5018321;28;20038;-63
2024/01/12 03:18:50;;;;;;;11.10;5.88;;;1.30;99.90;;;;;;5020515;28;20028;-63
2024/01/12 03:21:18;;;;;;;12.60;5.55;;;1.30;99.90;;;;;;5014420;28;20826;-63
2024/01/12 03:23:44;;;;;;;11.77;4.60;;;1.30;99.90;;;;;;5018607;28;20032;-63
2024/01/12 03:26:09;;;;;;;9.55;4.85;;;1.20;99.90;;;;;;5018165;28;20026;-63
2024/01/12 03:28:35;;;;;;;12.75;6.00;;;1.30;99.90;;;;;;5016812;28;20028;-64
2024/01/12 03:31:01;;;;;;;13.02;6.88;;;1.20;99.90;;;;;;5017732;28;20056;-63
2024/01/12 03:33:26;;;;;;;12.65;6.22;;;1.20;99.90;;;;;;5014678;28;20032;-63
2024/01/12 03:35:52;;;;;;;14.23;6.22;;;1.20;99.90;;;;;;5019327;28;20026;-64
2024/01/12 03:38:17;;;;;;;14.18;6.68;;;1.20;99.90;;;;;;5012716;28;20029;-63
2024/01/12 03:40:43;;;;;;;9.15;4.68;;;1.30;99.90;;;;;;5012256;28;20052;-63
2024/01/12 03:43:08;;;;;;;11.02;5.65;;;1.20;99.90;;;;;;5017047;28;20029;-63
2024/01/12 03:45:34;;;;;;;11.30;5.63;;;1.20;99.90;;;;;;5013962;28;20029;-64
2024/01/12 03:47:59;;;;;;;13.45;5.85;;;1.30;99.90;;;;;;5015607;28;20401;-64
2024/01/12 03:50:25;;;;;;;12.55;6.03;;;1.20;99.90;;;;;;5016417;28;20044;-63
2024/01/12 03:52:50;;;;;;;10.43;5.43;;;1.20;99.90;;;;;;5013688;28;20029;-64
2024/01/12 03:55:16;;;;;;;12.70;5.35;;;1.10;99.90;;;;;;5013641;28;20585;-63
2024/01/12 03:57:42;;;;;;;9.90;5.07;;;1.10;99.90;;;;;;5016692;28;20099;-63
2024/01/12 04:00:08;;;;;;;10.18;5.57;;;1.10;99.90;;;;;;5018289;28;20645;-63
2024/01/12 04:02:34;;;;;;;15.90;6.53;;;1.10;99.90;;;;;;5009879;28;20037;-64
2024/01/12 04:04:59;;;;;;;12.95;6.35;;;1.10;99.90;;;;;;5017267;28;20025;-64
2024/01/12 04:07:25;;;;;;;12.93;6.00;;;1.10;99.90;;;;;;5013409;28;20060;-64
2024/01/12 04:09:50;;;;;;;17.77;6.05;;;1.10;99.90;;;;;;5014262;28;20075;-64
2024/01/12 04:12:16;;;;;;;13.52;5.43;;;1.10;99.90;;;;;;5018141;28;20025;-64
2024/01/12 04:14:45;;;;;;;13.48;6.43;;;1.00;99.90;;;;;;5013962;28;20474;-64
2024/01/12 04:17:11;;;;;;;13.52;5.88;;;1.00;99.90;;;;;;5011573;28;20035;-64
2024/01/12 04:19:36;;;;;;;12.07;5.60;;;1.10;99.90;;;;;;5013572;28;20025;-64
2024/01/12 04:22:02;;;;;;;14.35;5.30;;;1.10;99.90;;;;;;5013390;28;20037;-64
2024/01/12 04:24:27;;;;;;;12.15;5.40;;;1.10;99.90;;;;;;5014721;28;20067;-64
2024/01/12 04:26:53;;;;;;;16.27;5.90;;;1.10;99.90;;;;;;5015576;28;20445;-64
2024/01/12 04:29:19;;;;;;;14.18;5.53;;;1.10;99.90;;;;;;5016176;28;20080;-63
2024/01/12 04:31:44;;;;;;;14.80;6.32;;;1.10;99.90;;;;;;5022170;28;20385;-64
2024/01/12 04:34:10;;;;;;;13.18;6.18;;;1.20;99.90;;;;;;5020997;28;20032;-64
2024/01/12 04:36:35;;;;;;;13.73;5.93;;;1.10;99.90;;;;;;5012745;28;20796;-64
2024/01/12 04:39:01;;;;;;;11.15;6.47;;;1.10;99.90;;;;;;5014757;28;20041;-64
2024/01/12 04:41:26;;;;;;;14.25;5.93;;;1.10;99.90;;;;;;5018063;28;20547;-63
2024/01/12 04:43:52;;;;;;;12.40;5.70;;;1.10;99.90;;;;;;5016286;28;20397;-63
2024/01/12 04:46:17;;;;;;;12.65;6.10;;;1.10;99.90;;;;;;5011569;28;20022;-63
2024/01/12 04:48:43;;;;;;;10.63;5.38;;;1.10;99.90;;;;;;5022831;28;20092;-64
2024/01/12 04:51:08;;;;;;;16.88;6.90;;;1.10;99.90;;;;;;5020358;28;20389;-64
2024/01/12 04:53:34;;;;;;;13.13;6.13;;;1.10;99.90;;;;;;5020885;28;20321;-63
2024/01/12 04:55:59;;;;;;;20.70;7.40;;;1.10;99.90;;;;;;5012377;28;20096;-63
2024/01/12 04:58:25;;;;;;;14.38;6.22;;;1.20;99.90;;;;;;5015804;28;20037;-64
2024/01/12 05:00:50;;;;;;;10.95;5.45;;;1.20;99.90;;;;;;5013363;28;20037;-64
2024/01/12 05:03:16;;;;;;;12.63;5.50;;;1.10;99.90;;;;;;5010224;28;20030;-63
2024/01/12 05:05:41;;;;;;;14.52;7.03;;;1.20;99.90;;;;;;5019962;28;20490;-63
2024/01/12 05:08:07;;;;;;;14.30;6.30;;;1.20;99.90;;;;;;5020512;28;20033;-63
2024/01/12 05:10:32;;;;;;;11.23;5.43;;;1.20;99.90;;;;;;5018704;28;20029;-64
2024/01/12 05:12:58;;;;;;;13.93;5.55;;;1.20;99.90;;;;;;5020357;28;20456;-63
2024/01/12 05:15:23;;;;;;;15.23;7.22;;;1.20;99.90;;;;;;5020663;28;20037;-64
2024/01/12 05:17:49;;;;;;;12.68;5.93;;;1.20;99.90;;;;;;5020429;28;20367;-63
2024/01/12 05:20:14;;;;;;;10.35;5.32;;;1.20;99.90;;;;;;5018912;28;20095;-63
2024/01/12 05:22:40;;;;;;;16.98;6.60;;;1.10;99.90;;;;;;5020257;28;20045;-64
2024/01/12 05:25:05;;;;;;;15.55;6.75;;;1.20;99.90;;;;;;5020482;28;20513;-63
2024/01/12 05:27:31;;;;;;;18.08;6.50;;;1.20;99.90;;;;;;5012932;28;20060;-64
2024/01/12 05:29:57;;;;;;;13.80;6.20;;;1.10;99.90;;;;;;5014476;28;20057;-63
2024/01/12 05:32:22;;;;;;;17.50;5.95;;;1.10;99.90;;;;;;5015363;28;20401;-63
2024/01/12 05:34:48;;;;;;;14.45;6.55;;;1.20;99.90;;;;;;5015522;28;20087;-64
2024/01/12 05:37:13;;;;;;;13.05;6.30;;;1.20;99.90;;;;;;5014553;28;20112;-64
2024/01/12 05:39:39;;;;;;;20.88;8.02;;;1.10;99.90;;;;;;5017397;28;20402;-63
2024/01/12 05:42:04;;;;;;;15.15;7.32;;;1.10;99.90;;;;;;5019809;28;20079;-64
2024/01/12 05:44:30;;;;;;;17.65;7.13;;;1.10;99.90;;;;;;5021835;28;20033;-63
2024/01/12 05:46:56;;;;;;;16.52;7.72;;;1.10;99.90;;;;;;5014864;28;20029;-64
2024/01/12 05:49:21;;;;;;;13.60;6.20;;;1.20;99.90;;;;;;5017565;28;20032;-63
2024/01/12 05:51:47;;;;;;;11.65;5.40;;;1.20;99.90;;;;;;5019924;28;20091;-63
2024/01/12 05:54:13;;;;;;;17.30;6.60;;;1.20;99.90;;;;;;5019511;28;20057;-63
2024/01/12 05:56:38;;;;;;;21.10;8.15;;;1.20;99.90;;;;;;5021607;28;20025;-64
2024/01/12 05:59:04;;;;;;;17.40;7.20;;;1.20;99.90;;;;;;5019448;28;20148;-63
2024/01/12 06:01:29;;;;;;;17.55;7.82;;;1.20;99.90;;;;;;5007298;28;20034;-64
2024/01/12 06:03:55;;;;;;;18.52;7.05;;;1.20;99.90;;;;;;5013692;28;20021;-64
2024/01/12 06:06:20;;;;;;;18.38;7.47;;;1.20;99.90;;;;;;5013176;28;20104;-63
2024/01/12 06:08:46;;;;;;;14.88;6.63;;;1.20;99.90;;;;;;5012801;28;20061;-64
2024/01/12 06:11:11;;;;;;;15.48;6.82;;;1.20;99.90;;;;;;5011656;28;20064;-64
2024/01/12 06:13:38;;;;;;;15.52;7.40;;;1.20;99.90;;;;;;5011384;28;20045;-64
2024/01/12 06:16:04;;;;;;;14.15;6.32;;;1.20;99.90;;;;;;5013052;28;20041;-63
2024/01/12 06:18:30;;;;;;;14.40;6.38;;;1.20;99.90;;;;;;5013706;28;20063;-63
2024/01/12 06:20:55;;;;;;;17.70;6.45;;;1.10;99.90;;;;;;5011431;28;20034;-63
2024/01/12 06:23:21;;;;;;;12.80;6.57;;;1.10;99.90;;;;;;5016534;28;20053;-63
2024/01/12 06:25:46;;;;;;;13.88;6.20;;;1.10;99.90;;;;;;5011151;28;20382;-64
2024/01/12 06:28:13;;;;;;;11.52;6.05;;;1.10;99.90;;;;;;5014634;28;20071;-64
2024/01/12 06:30:38;;;;;;;13.52;6.53;;;1.10;99.90;;;;;;5011092;28;20530;-64
2024/01/12 06:33:04;;;;;;;12.57;6.15;;;1.20;99.90;;;;;;5011945;28;20046;-64
2024/01/12 06:35:30;;;;;;;11.90;6.03;;;1.10;99.90;;;;;;5013056;28;20511;-64
2024/01/12 06:37:57;;;;;;;11.63;6.03;;;1.20;99.90;;;;;;5010939;28;20030;-63
2024/01/12 06:40:22;;;;;;;9.35;5.05;;;1.10;99.90;;;;;;5014660;28;20038;-63
2024/01/12 06:42:48;;;;;;;10.48;5.20;;;1.10;99.90;;;;;;5012850;28;20162;-63
2024/01/12 06:45:13;;;;;;;12.13;5.28;;;1.10;99.90;;;;;;5010935;28;20036;-63
2024/01/12 06:47:39;;;;;;;10.20;4.88;;;1.00;99.90;;;;;;5018870;28;20461;-63
2024/01/12 06:50:05;;;;;;;10.25;5.05;;;1.00;99.90;;;;;;5018958;28;20021;-63
2024/01/12 06:52:30;;;;;;;9.45;5.00;;;1.00;99.90;;;;;;5018799;28;20120;-63
2024/01/12 06:54:56;;;;;;;11.00;5.65;;;1.00;99.90;;;;;;5013723;28;20014;-58
2024/01/12 06:57:22;;;;;;;13.30;5.70;;;1.00;99.90;;;;;;5020526;28;20101;-62
2024/01/12 06:59:47;;;;;;;11.63;5.68;;;1.00;99.90;;;;;;5018765;28;20445;-63
2024/01/12 07:02:14;;;;;;;10.38;4.90;;;1.00;99.90;;;;;;5013776;28;20030;-64
2024/01/12 07:04:39;;;;;;;12.25;5.72;;;1.00;99.90;;;;;;5017769;28;20575;-54
2024/01/12 07:07:05;;;;;;;12.15;5.50;;;1.00;99.90;;;;;;5011235;28;20116;-53
2024/01/12 07:09:31;;;;;;;10.80;5.07;;;1.00;99.90;;;;;;5010056;28;20386;-53
2024/01/12 07:11:56;;;;;;;10.32;5.68;;;1.00;99.90;;;;;;5009674;28;20148;-55
2024/01/12 07:14:22;;;;;;;14.18;6.55;;;1.00;99.90;;;;;;5012843;28;20425;-54
2024/01/12 07:16:47;;;;;;;9.95;4.97;;;1.00;99.90;;;;;;5009673;28;20033;-55
2024/01/12 07:19:13;;;;;;;13.07;6.45;;;1.00;99.90;;;;;;5011174;28;20061;-54
2024/01/12 07:21:38;;;;;;;12.45;6.25;;;1.00;99.90;;;;;;5016839;28;20064;-55
2024/01/12 07:24:04;;;;;;;14.55;7.18;;;0.90;99.90;;;;;;5020740;28;20543;-53
2024/01/12 07:26:30;;;;;;;13.68;6.47;;;0.90;99.90;;;;;;5026609;28;20433;-52
2024/01/12 07:28:55;;;;;;;13.25;6.07;;;0.80;99.90;;;;;;5007265;28;20033;-55
2024/01/12 07:31:20;;;;;;;13.48;6.55;;;0.80;99.90;;;;;;5017909;28;20045;-54
2024/01/12 07:33:46;;;;;;;14.55;6.82;;;0.90;99.90;;;;;;5011987;28;20033;-55
2024/01/12 07:36:11;;;;;;;17.13;7.15;;;0.90;99.90;;;;;;5010340;28;20064;-55
2024/01/12 07:38:37;;;;;;;15.48;7.25;;;0.90;99.90;;;;;;5008065;28;20390;-51
2024/01/12 07:41:03;;;;;;;14.63;7.45;;;0.90;99.90;;;;;;5006842;28;20037;-53
2024/01/12 07:43:30;;;;;;;13.98;7.25;;;0.90;99.90;;;;;;5012074;28;20029;-55
2024/01/12 07:45:56;;;;;;;15.35;7.40;;;0.90;99.90;;;;;;5015590;28;20026;-51
2024/01/12 07:48:21;;;;;;;13.35;6.53;;;0.90;99.90;;;;;;5013768;28;20117;-55
2024/01/12 07:50:47;;;;;;;15.65;7.18;;;0.80;99.90;;;;;;5015749;28;20033;-52
2024/01/12 07:53:12;;;;;;;16.77;7.75;;;0.80;99.90;;;;;;5009417;28;20048;-51
2024/01/12 07:55:38;;;;;;;13.73;6.88;;;0.80;99.90;;;;;;5013125;28;20025;-51
2024/01/12 07:58:03;;;;;;;17.67;7.20;;;0.90;99.90;;;;;;5007346;28;20034;-54
2024/01/12 08:00:29;;;;;;;16.23;6.75;;;0.90;99.90;;;;;;5019637;28;20053;-51
2024/01/12 08:02:55;;;;;;;11.60;6.10;;;0.90;99.90;;;;;;5010815;28;20025;-55
2024/01/12 08:05:22;;;;;;;17.08;7.05;;;0.90;99.90;;;;;;5017083;28;20525;-54
2024/01/12 08:07:48;;;;;;;13.90;7.22;;;0.90;99.90;;;;;;5010342;28;20547;-49
2024/01/12 08:10:14;;;;;;;18.75;7.50;;;1.00;99.90;;;;;;5015376;28;20448;-53
2024/01/12 08:12:39;;;;;;;15.50;6.25;;;0.90;99.90;;;;;;5017680;28;20049;-55
2024/01/12 08:15:06;;;;;;;18.38;7.32;;;1.00;99.90;;;;;;5013816;28;20485;-53
2024/01/12 08:17:31;;;;;;;17.67;7.40;;;1.00;99.90;;;;;;5015088;28;20028;-54
2024/01/12 08:19:57;;;;;;;17.42;6.78;;;1.00;99.90;;;;;;5012147;28;20026;-51
2024/01/12 08:22:22;;;;;;;18.45;8.25;;;1.00;99.90;;;;;;5014676;28;20037;-52
2024/01/12 08:24:48;;;;;;;16.63;7.43;;;1.00;99.90;;;;;;5015355;28;20103;-55
2024/01/12 08:27:13;;;;;;;16.00;7.95;;;1.10;99.90;;;;;;5012780;28;20406;-55
2024/01/12 08:29:39;;;;;;;15.35;7.07;;;1.10;99.90;;;;;;5016362;28;20385;-56
2024/01/12 08:32:04;;;;;;;17.20;7.63;;;1.10;99.90;;;;;;5014836;28;20439;-55
2024/01/12 08:34:30;;;;;;;18.50;7.55;;;1.10;99.90;;;;;;5010711;28;20033;-54
2024/01/12 08:36:58;;;;;;;19.13;8.15;;;1.10;99.90;;;;;;5014756;28;20116;-53
2024/01/12 08:39:23;;;;;;;14.80;7.18;;;1.20;99.90;;;;;;5014772;28;20029;-53
2024/01/12 08:41:49;;;;;;;20.45;8.68;;;1.20;99.90;;;;;;5016658;28;20037;-54
2024/01/12 08:44:14;;;;;;;16.27;7.75;;;1.10;99.90;;;;;;5016056;28;20409;-52
2024/01/12 08:46:40;;;;;;;17.80;8.40;;;1.20;99.90;;;;;;5014913;28;20026;-56
2024/01/12 08:49:05;;;;;;;21.67;8.73;;;1.20;99.90;;;;;;5016673;28;20029;-51
2024/01/12 08:51:31;;;;;;;19.73;8.57;;;1.20;99.90;;;;;;5011280;28;20451;-55
2024/01/12 08:53:56;;;;;;;21.17;9.02;;;1.20;99.90;;;;;;5016520;28;20038;-56
2024/01/12 08:56:22;;;;;;;18.92;8.82;;;1.20;99.90;;;;;;5015870;28;20025;-55
2024/01/12 08:58:47;;;;;;;16.67;8.27;;;1.20;99.90;;;;;;5016939;28;20069;-53
2024/01/12 09:01:14;;;;;;;22.55;9.13;;;1.30;99.90;;;;;;5015943;28;20033;-53
2024/01/12 09:03:39;;;;;;;17.20;7.72;;;1.30;99.90;;;;;;5012490;28;20098;-54
2024/01/12 09:06:05;;;;;;;16.02;8.23;;;1.30;99.90;;;;;;5015635;28;20021;-52
2024/01/12 09:08:30;;;;;;;15.60;7.90;;;1.30;99.90;;;;;;5011976;28;20052;-55
2024/01/12 09:10:56;;;;;;;17.27;9.10;;;1.40;99.90;;;;;;5011252;28;20053;-53
2024/01/12 09:13:21;;;;;;;18.98;8.68;;;1.40;99.90;;;;;;5015038;28;20044;-51
2024/01/12 09:15:47;;;;;;;19.70;9.52;;;1.30;99.90;;;;;;5010548;28;20022;-52
2024/01/12 09:18:13;;;;;;;19.23;9.82;;;1.30;99.90;;;;;;5015574;28;20120;-55
2024/01/12 09:20:38;;;;;;;20.35;10.68;;;1.30;99.90;;;;;;5012223;28;20038;-56
2024/01/12 09:23:04;;;;;;;21.35;10.00;;;1.30;99.90;;;;;;5016710;28;20717;-52
2024/01/12 09:25:32;;;;;;;20.20;9.63;;;1.30;99.90;;;;;;5015307;28;20037;-54
2024/01/12 09:27:57;;;;;;;17.55;8.00;;;1.30;99.90;;;;;;5015033;28;20036;-53
2024/01/12 09:30:23;;;;;;;20.10;8.48;;;1.30;99.90;;;;;;5016541;28;20632;-55
2024/01/12 09:32:48;;;;;;;19.52;8.80;;;1.30;99.90;;;;;;5013744;28;20113;-54
2024/01/12 09:35:15;;;;;;;18.17;9.30;;;1.30;99.90;;;;;;5012946;28;20115;-51
2024/01/12 09:37:40;;;;;;;22.25;9.40;;;1.30;99.90;;;;;;5016320;28;20056;-56
2024/01/12 09:40:06;;;;;;;21.30;9.95;;;1.40;99.90;;;;;;5012255;28;20065;-55
2024/01/12 09:42:32;;;;;;;19.60;9.73;;;1.40;99.90;;;;;;5013250;28;20037;-57
2024/01/12 09:45:00;;;;;;;20.60;11.43;;;1.40;99.90;;;;;;5014192;28;20026;-50
2024/01/12 09:47:26;;;;;;;25.13;12.60;;;1.40;99.90;;;;;;5011455;28;20017;-55
2024/01/12 09:49:52;;;;;;;24.45;11.75;;;1.40;99.90;;;;;;5017380;28;20036;-55
2024/01/12 09:52:18;;;;;;;21.98;10.93;;;1.40;99.90;;;;;;5012667;28;20022;-55
2024/01/12 09:54:44;;;;;;;28.70;14.73;;;1.40;99.90;;;;;;5016548;28;20029;-54
2024/01/12 09:57:11;;;;;;;93.85;37.67;;;1.40;99.90;;;;;;5013812;28;20022;-55
2024/01/12 09:59:38;;;;;;;42.63;20.15;;;1.40;99.90;;;;;;5011132;28;20533;-55
2024/01/12 10:02:08;;;;;;;44.67;20.73;;;1.40;99.90;;;;;;5009094;28;20033;-53
2024/01/12 10:04:33;;;;;;;37.25;17.67;;;1.30;99.90;;;;;;5011619;28;20561;-55
2024/01/12 10:06:59;;;;;;;48.45;22.17;;;1.30;99.90;;;;;;5012858;28;20155;-54
2024/01/12 10:09:26;;;;;;;29.73;15.07;;;1.30;99.90;;;;;;5012188;28;20034;-53
2024/01/12 10:11:53;;;;;;;28.20;14.23;;;1.30;99.90;;;;;;5014579;28;21164;-55
2024/01/12 10:14:20;;;;;;;24.75;12.57;;;1.30;99.90;;;;;;5011107;28;20391;-55
2024/01/12 10:16:55;;;;;;;22.75;11.15;;;1.30;99.90;;;;;;5012855;28;20029;-55
2024/01/12 10:19:21;;;;;;;22.38;11.60;;;1.30;99.90;;;;;;5014448;28;20139;-53
2024/01/12 10:21:47;;;;;;;20.65;10.48;;;1.30;99.90;;;;;;5011189;28;20494;-53
2024/01/12 10:24:17;;;;;;;24.48;10.43;;;1.40;99.90;;;;;;5013680;28;20066;-54
2024/01/12 10:26:43;;;;;;;20.10;9.60;;;1.40;99.90;;;;;;5011743;28;20025;-55
2024/01/12 10:29:09;;;;;;;18.13;8.27;;;1.40;99.90;;;;;;5012098;28;20032;-55
2024/01/12 10:31:39;;;;;;;17.58;9.25;;;1.40;99.90;;;;;;5013030;28;20029;-55
2024/01/12 10:34:08;;;;;;;15.73;7.85;;;1.40;99.90;;;;;;5013450;28;20105;-53
2024/01/12 10:36:36;;;;;;;20.85;9.02;;;1.40;99.90;;;;;;5017209;28;20022;-55
2024/01/12 10:39:03;;;;;;;13.25;6.70;;;1.40;99.90;;;;;;5012737;28;20030;-54
2024/01/12 10:41:28;;;;;;;14.20;8.00;;;1.40;99.90;;;;;;5010927;28;20021;-55
2024/01/12 10:43:59;;;;;;;17.30;8.20;;;1.40;99.90;;;;;;5008262;28;20083;-54
2024/01/12 10:46:36;;;;;;;15.27;7.95;;;1.30;99.90;;;;;;5011673;28;20453;-54
2024/01/12 10:49:23;;;;;;;17.40;8.80;;;1.30;99.90;;;;;;5012415;28;21012;-52
2024/01/12 10:52:12;;;;;;;12.00;6.97;;;1.30;99.90;;;;;;5011554;28;20033;-55
2024/01/12 10:54:50;;;;;;;14.77;7.82;;;1.30;99.90;;;;;;5016381;28;20032;-53
2024/01/12 10:57:16;;;;;;;16.80;8.48;;;1.30;99.90;;;;;;5015689;28;20022;-54
2024/01/12 10:59:44;;;;;;;13.27;7.75;;;1.30;99.90;;;;;;5014536;28;20030;-54
2024/01/12 11:02:12;;;;;;;16.33;7.78;;;1.20;99.90;;;;;;5019749;28;20022;-54
2024/01/12 11:04:38;;;;;;;14.85;7.22;;;1.30;99.90;;;;;;5018453;28;20033;-55
2024/01/12 11:07:06;;;;;;;15.10;7.57;;;1.30;99.90;;;;;;5013258;28;20026;-53
2024/01/12 11:09:31;;;;;;;13.65;6.97;;;1.40;99.90;;;;;;5016679;28;20060;-54
2024/01/12 11:12:12;;;;;;;15.23;7.22;;;1.30;99.90;;;;;;5020478;28;20183;-55
2024/01/12 11:14:40;;;;;;;15.15;7.38;;;1.40;99.90;;;;;;5015284;28;20033;-49
2024/01/12 11:17:07;;;;;;;15.07;7.97;;;1.40;99.90;;;;;;5012139;28;20041;-53
2024/01/12 11:19:33;;;;;;;13.77;6.75;;;1.40;99.90;;;;;;5011824;28;20052;-51
2024/01/12 11:22:03;;;;;;;14.98;7.28;;;1.40;99.90;;;;;;5015903;28;20518;-52
2024/01/12 11:24:30;;;;;;;15.40;6.82;;;1.40;99.90;;;;;;5013202;28;20040;-50
2024/01/12 11:26:55;;;;;;;12.25;6.90;;;1.40;99.90;;;;;;5007359;28;20048;-55
2024/01/12 11:29:21;;;;;;;11.27;5.97;;;1.40;99.90;;;;;;5014274;28;20645;-54
2024/01/12 11:31:54;;;;;;;12.23;6.47;;;1.40;99.90;;;;;;5012652;28;20040;-50
2024/01/12 11:34:19;;;;;;;13.38;7.05;;;1.40;99.90;;;;;;5018062;28;20021;-55
2024/01/12 11:36:55;;;;;;;13.93;6.18;;;1.40;99.90;;;;;;5010507;28;20033;-55
2024/01/12 11:39:22;;;;;;;14.90;7.07;;;1.50;99.90;;;;;;5015424;28;20030;-52
2024/01/12 11:41:52;;;;;;;11.93;5.90;;;1.40;99.90;;;;;;5007432;28;20045;-54
2024/01/12 11:44:18;;;;;;;13.65;6.68;;;1.40;99.90;;;;;;5009478;28;20512;-54
2024/01/12 11:46:44;;;;;;;10.40;5.57;;;1.40;99.90;;;;;;5013792;28;20065;-49
2024/01/12 11:49:09;;;;;;;13.10;6.15;;;1.40;99.90;;;;;;5011703;28;20104;-54
2024/01/12 11:51:35;;;;;;;14.48;6.80;;;1.30;99.90;;;;;;5012349;28;20571;-54
2024/01/12 11:54:00;;;;;;;13.07;6.43;;;1.30;99.90;;;;;;5013912;28;20025;-52
2024/01/12 11:56:28;;;;;;;14.80;7.28;;;1.30;99.90;;;;;;5019766;28;20447;-54
2024/01/12 11:58:54;;;;;;;16.27;8.30;;;1.40;99.90;;;;;;5006406;28;20041;-52
2024/01/12 12:01:20;;;;;;;12.95;7.25;;;1.30;99.90;;;;;;5003241;28;20502;-55
2024/01/12 12:03:45;;;;;;;16.73;8.23;;;1.30;99.90;;;;;;5011342;28;20033;-53
2024/01/12 12:06:12;;;;;;;17.25;8.55;;;1.40;99.90;;;;;;5008902;28;20603;-55
2024/01/12 12:08:40;;;;;;;14.07;7.20;;;1.30;99.90;;;;;;5013097;28;20033;-54
2024/01/12 12:11:05;;;;;;;14.00;7.57;;;1.40;99.90;;;;;;5012589;28;20355;-52
2024/01/12 12:13:33;;;;;;;14.18;6.82;;;1.40;99.90;;;;;;5013661;28;20033;-52
2024/01/12 12:15:59;;;;;;;10.85;5.50;;;1.40;99.90;;;;;;5011192;28;20080;-55
2024/01/12 12:18:24;;;;;;;17.85;8.73;;;1.50;99.90;;;;;;5013710;28;20029;-55
2024/01/12 12:20:50;;;;;;;14.23;6.85;;;1.40;99.90;;;;;;5016786;28;20112;-52
2024/01/12 12:23:16;;;;;;;15.68;6.95;;;1.40;99.90;;;;;;5010032;28;20018;-56
2024/01/12 12:25:42;;;;;;;11.75;6.30;;;1.40;99.90;;;;;;5009166;28;20067;-55
2024/01/12 12:28:08;;;;;;;12.88;6.90;;;1.40;99.90;;;;;;5013328;28;20581;-55
2024/01/12 12:30:35;;;;;;;14.50;8.40;;;1.40;99.90;;;;;;5018766;28;20052;-54
2024/01/12 12:33:00;;;;;;;16.30;8.00;;;1.40;99.90;;;;;;5012004;28;20018;-53
2024/01/12 12:35:26;;;;;;;17.35;8.15;;;1.40;99.90;;;;;;5013680;28;20029;-54
2024/01/12 12:37:52;;;;;;;31.02;14.15;;;1.40;99.90;;;;;;5010639;28;20018;-55
2024/01/12 12:40:19;;;;;;;18.25;9.15;;;1.30;99.90;;;;;;5011035;28;20075;-51